sensor_id;sensor_type;location;lat;lon;timestamp;P1;P2;P0
28026;PMS5003;15344;52.342;-1.290;2022-12-18T00:00:09;44;33;
28026;PMS5003;15344;52.342;-1.290;2022-12-18T00:02:34;41;30;
28026;PMS5003;15344;52.342;-1.290;2022-12-18T00:04:59;32;26;
28026;PMS5003;15344;52.342;-1.290;2022-12-18T00:07:25;38;29;
28026;PMS5003;15344;52.342;-1.290;2022-12-18T00:09:50;37;30;
28026;PMS5003;15344;52.342;-1.290;2022-12-18T00:12:15;42;31;
28026;PMS5003;15344;52.342;-1.290;2022-12-18T00:14:41;35;28;
28026;PMS5003;15344;52.342;-1.290;2022-12-18T00:17:06;31;23;
28026;PMS5003;15344;52.342;-1.290;2022-12-18T00:19:32;24;23;
28026;PMS5003;15344;52.342;-1.290;2022-12-18T00:21:57;31;23;
28026;PMS5003;15344;52.342;-1.290;2022-12-18T00:24:22;29;24;
28026;PMS5003;15344;52.342;-1.290;2022-12-18T00:26:48;32;26;
28026;PMS5003;15344;52.342;-1.290;2022-12-18T00:29:13;34;28;
28026;PMS5003;15344;52.342;-1.290;2022-12-18T00:31:39;26;24;
28026;PMS5003;15344;52.342;-1.290;2022-12-18T00:34:05;33;30;
28026;PMS5003;15344;52.342;-1.290;2022-12-18T00:36:31;35;28;
28026;PMS5003;15344;52.342;-1.290;2022-12-18T00:38:56;34;27;
28026;PMS5003;15344;52.342;-1.290;2022-12-18T00:41:21;28;24;
28026;PMS5003;15344;52.342;-1.290;2022-12-18T00:43:47;31;24;
28026;PMS5003;15344;52.342;-1.290;2022-12-18T00:46:12;36;28;
28026;PMS5003;15344;52.342;-1.290;2022-12-18T00:48:38;29;24;
28026;PMS5003;15344;52.342;-1.290;2022-12-18T00:51:03;26;22;
28026;PMS5003;15344;52.342;-1.290;2022-12-18T00:53:29;36;27;
28026;PMS5003;15344;52.342;-1.290;2022-12-18T00:55:54;40;29;
28026;PMS5003;15344;52.342;-1.290;2022-12-18T00:58:19;30;28;
28026;PMS5003;15344;52.342;-1.290;2022-12-18T01:00:45;40;29;
28026;PMS5003;15344;52.342;-1.290;2022-12-18T01:03:12;35;28;
28026;PMS5003;15344;52.342;-1.290;2022-12-18T01:05:38;30;24;
28026;PMS5003;15344;52.342;-1.290;2022-12-18T01:08:02;33;27;
28026;PMS5003;15344;52.342;-1.290;2022-12-18T01:10:27;35;30;
28026;PMS5003;15344;52.342;-1.290;2022-12-18T01:12:52;36;28;
28026;PMS5003;15344;52.342;-1.290;2022-12-18T01:15:19;32;27;
28026;PMS5003;15344;52.342;-1.290;2022-12-18T01:17:44;29;28;
28026;PMS5003;15344;52.342;-1.290;2022-12-18T01:20:10;31;23;
28026;PMS5003;15344;52.342;-1.290;2022-12-18T01:22:34;36;27;
28026;PMS5003;15344;52.342;-1.290;2022-12-18T01:25:00;35;29;
28026;PMS5003;15344;52.342;-1.290;2022-12-18T01:27:25;34;30;
28026;PMS5003;15344;52.342;-1.290;2022-12-18T01:29:50;32;28;
28026;PMS5003;15344;52.342;-1.290;2022-12-18T01:32:16;46;31;
28026;PMS5003;15344;52.342;-1.290;2022-12-18T01:34:41;38;30;
28026;PMS5003;15344;52.342;-1.290;2022-12-18T01:37:07;42;35;
28026;PMS5003;15344;52.342;-1.290;2022-12-18T01:39:32;39;31;
28026;PMS5003;15344;52.342;-1.290;2022-12-18T01:41:58;39;31;
28026;PMS5003;15344;52.342;-1.290;2022-12-18T01:46:49;34;28;
28026;PMS5003;15344;52.342;-1.290;2022-12-18T01:49:14;35;31;
28026;PMS5003;15344;52.342;-1.290;2022-12-18T01:51:39;36;32;
28026;PMS5003;15344;52.342;-1.290;2022-12-18T01:54:05;42;31;
28026;PMS5003;15344;52.342;-1.290;2022-12-18T01:56:30;50;34;
28026;PMS5003;15344;52.342;-1.290;2022-12-18T01:58:58;49;33;
28026;PMS5003;15344;52.342;-1.290;2022-12-18T02:01:21;46;32;
28026;PMS5003;15344;52.342;-1.290;2022-12-18T02:03:46;44;34;
28026;PMS5003;15344;52.342;-1.290;2022-12-18T02:06:13;45;37;
28026;PMS5003;15344;52.342;-1.290;2022-12-18T02:08:39;48;37;
28026;PMS5003;15344;52.342;-1.290;2022-12-18T02:11:04;45;35;
28026;PMS5003;15344;52.342;-1.290;2022-12-18T02:13:30;39;36;
28026;PMS5003;15344;52.342;-1.290;2022-12-18T02:15:56;39;32;
28026;PMS5003;15344;52.342;-1.290;2022-12-18T02:18:20;49;36;
28026;PMS5003;15344;52.342;-1.290;2022-12-18T02:20:47;42;31;
28026;PMS5003;15344;52.342;-1.290;2022-12-18T02:23:12;40;34;
28026;PMS5003;15344;52.342;-1.290;2022-12-18T02:25:43;52;40;
28026;PMS5003;15344;52.342;-1.290;2022-12-18T02:28:01;54;38;
28026;PMS5003;15344;52.342;-1.290;2022-12-18T02:30:27;42;37;
28026;PMS5003;15344;52.342;-1.290;2022-12-18T02:32:52;51;33;
28026;PMS5003;15344;52.342;-1.290;2022-12-18T02:35:19;40;37;
28026;PMS5003;15344;52.342;-1.290;2022-12-18T02:37:43;60;41;
28026;PMS5003;15344;52.342;-1.290;2022-12-18T02:40:09;51;40;
28026;PMS5003;15344;52.342;-1.290;2022-12-18T02:42:34;52;42;
28026;PMS5003;15344;52.342;-1.290;2022-12-18T02:45:00;53;41;
28026;PMS5003;15344;52.342;-1.290;2022-12-18T02:47:27;59;42;
28026;PMS5003;15344;52.342;-1.290;2022-12-18T02:49:53;48;41;
28026;PMS5003;15344;52.342;-1.290;2022-12-18T02:52:18;49;41;
28026;PMS5003;15344;52.342;-1.290;2022-12-18T02:54:45;49;42;
28026;PMS5003;15344;52.342;-1.290;2022-12-18T02:57:10;49;43;
28026;PMS5003;15344;52.342;-1.290;2022-12-18T02:59:33;46;34;
28026;PMS5003;15344;52.342;-1.290;2022-12-18T03:01:58;53;44;
28026;PMS5003;15344;52.342;-1.290;2022-12-18T03:04:25;55;44;
28026;PMS5003;15344;52.342;-1.290;2022-12-18T03:06:49;49;41;
28026;PMS5003;15344;52.342;-1.290;2022-12-18T03:09:14;49;38;
28026;PMS5003;15344;52.342;-1.290;2022-12-18T03:11:41;62;48;
28026;PMS5003;15344;52.342;-1.290;2022-12-18T03:14:05;60;46;
28026;PMS5003;15344;52.342;-1.290;2022-12-18T03:16:31;60;46;
28026;PMS5003;15344;52.342;-1.290;2022-12-18T03:18:58;65;48;
28026;PMS5003;15344;52.342;-1.290;2022-12-18T03:21:24;54;46;
28026;PMS5003;15344;52.342;-1.290;2022-12-18T03:23:48;54;48;
28026;PMS5003;15344;52.342;-1.290;2022-12-18T03:26:14;61;47;
28026;PMS5003;15344;52.342;-1.290;2022-12-18T03:28:40;69;52;
28026;PMS5003;15344;52.342;-1.290;2022-12-18T03:31:04;53;46;
28026;PMS5003;15344;52.342;-1.290;2022-12-18T03:33:29;58;46;
28026;PMS5003;15344;52.342;-1.290;2022-12-18T03:35:54;60;48;
28026;PMS5003;15344;52.342;-1.290;2022-12-18T03:38:20;61;54;
28026;PMS5003;15344;52.342;-1.290;2022-12-18T03:40:50;64;54;
28026;PMS5003;15344;52.342;-1.290;2022-12-18T03:43:15;59;46;
28026;PMS5003;15344;52.342;-1.290;2022-12-18T03:45:38;71;54;
28026;PMS5003;15344;52.342;-1.290;2022-12-18T03:48:04;67;51;
28026;PMS5003;15344;52.342;-1.290;2022-12-18T03:50:31;69;53;
28026;PMS5003;15344;52.342;-1.290;2022-12-18T03:52:56;63;50;
28026;PMS5003;15344;52.342;-1.290;2022-12-18T03:55:20;66;49;
28026;PMS5003;15344;52.342;-1.290;2022-12-18T03:57:46;75;50;
28026;PMS5003;15344;52.342;-1.290;2022-12-18T04:00:12;61;47;
28026;PMS5003;15344;52.342;-1.290;2022-12-18T04:02:36;63;51;
28026;PMS5003;15344;52.342;-1.290;2022-12-18T04:05:03;60;47;
28026;PMS5003;15344;52.342;-1.290;2022-12-18T04:07:27;69;49;
28026;PMS5003;15344;52.342;-1.290;2022-12-18T04:09:53;70;53;
28026;PMS5003;15344;52.342;-1.290;2022-12-18T04:12:18;56;50;
28026;PMS5003;15344;52.342;-1.290;2022-12-18T04:14:43;72;55;
28026;PMS5003;15344;52.342;-1.290;2022-12-18T04:17:08;63;51;
28026;PMS5003;15344;52.342;-1.290;2022-12-18T04:19:34;56;45;
28026;PMS5003;15344;52.342;-1.290;2022-12-18T04:22:00;65;54;
28026;PMS5003;15344;52.342;-1.290;2022-12-18T04:24:25;66;54;
28026;PMS5003;15344;52.342;-1.290;2022-12-18T04:26:51;71;57;
28026;PMS5003;15344;52.342;-1.290;2022-12-18T04:29:16;68;51;
28026;PMS5003;15344;52.342;-1.290;2022-12-18T04:31:42;57;45;
28026;PMS5003;15344;52.342;-1.290;2022-12-18T04:34:08;65;51;
28026;PMS5003;15344;52.342;-1.290;2022-12-18T04:36:33;57;46;
28026;PMS5003;15344;52.342;-1.290;2022-12-18T04:38:59;80;56;
28026;PMS5003;15344;52.342;-1.290;2022-12-18T04:41:24;61;48;
28026;PMS5003;15344;52.342;-1.290;2022-12-18T04:43:49;62;51;
28026;PMS5003;15344;52.342;-1.290;2022-12-18T04:46:15;79;58;
28026;PMS5003;15344;52.342;-1.290;2022-12-18T04:48:41;78;57;
28026;PMS5003;15344;52.342;-1.290;2022-12-18T04:51:07;66;56;
28026;PMS5003;15344;52.342;-1.290;2022-12-18T04:53:32;59;49;
28026;PMS5003;15344;52.342;-1.290;2022-12-18T04:58:23;82;55;
28026;PMS5003;15344;52.342;-1.290;2022-12-18T05:00:48;65;55;
28026;PMS5003;15344;52.342;-1.290;2022-12-18T05:03:13;60;45;
28026;PMS5003;15344;52.342;-1.290;2022-12-18T05:05:39;82;63;
28026;PMS5003;15344;52.342;-1.290;2022-12-18T05:08:04;73;56;
28026;PMS5003;15344;52.342;-1.290;2022-12-18T05:10:29;81;62;
28026;PMS5003;15344;52.342;-1.290;2022-12-18T05:12:55;63;56;
28026;PMS5003;15344;52.342;-1.290;2022-12-18T05:15:20;64;53;
28026;PMS5003;15344;52.342;-1.290;2022-12-18T05:17:45;68;55;
28026;PMS5003;15344;52.342;-1.290;2022-12-18T05:20:11;61;54;
28026;PMS5003;15344;52.342;-1.290;2022-12-18T05:22:36;71;53;
28026;PMS5003;15344;52.342;-1.290;2022-12-18T05:25:02;73;52;
28026;PMS5003;15344;52.342;-1.290;2022-12-18T05:27:27;82;61;
28026;PMS5003;15344;52.342;-1.290;2022-12-18T05:29:53;77;58;
28026;PMS5003;15344;52.342;-1.290;2022-12-18T05:32:18;77;55;
28026;PMS5003;15344;52.342;-1.290;2022-12-18T05:34:44;64;55;
28026;PMS5003;15344;52.342;-1.290;2022-12-18T05:37:09;76;58;
28026;PMS5003;15344;52.342;-1.290;2022-12-18T05:39:34;67;55;
28026;PMS5003;15344;52.342;-1.290;2022-12-18T05:41:59;68;54;
28026;PMS5003;15344;52.342;-1.290;2022-12-18T05:44:25;65;51;
28026;PMS5003;15344;52.342;-1.290;2022-12-18T05:46:50;80;60;
28026;PMS5003;15344;52.342;-1.290;2022-12-18T05:49:16;85;63;
28026;PMS5003;15344;52.342;-1.290;2022-12-18T05:51:41;59;52;
28026;PMS5003;15344;52.342;-1.290;2022-12-18T05:54:06;80;61;
28026;PMS5003;15344;52.342;-1.290;2022-12-18T05:56:32;76;55;
28026;PMS5003;15344;52.342;-1.290;2022-12-18T05:58:57;91;64;
28026;PMS5003;15344;52.342;-1.290;2022-12-18T06:01:23;69;59;
28026;PMS5003;15344;52.342;-1.290;2022-12-18T06:03:48;69;53;
28026;PMS5003;15344;52.342;-1.290;2022-12-18T06:06:14;66;49;
28026;PMS5003;15344;52.342;-1.290;2022-12-18T06:08:39;70;56;
28026;PMS5003;15344;52.342;-1.290;2022-12-18T06:11:05;71;50;
28026;PMS5003;15344;52.342;-1.290;2022-12-18T06:13:30;58;52;
28026;PMS5003;15344;52.342;-1.290;2022-12-18T06:15:55;74;58;
28026;PMS5003;15344;52.342;-1.290;2022-12-18T06:18:21;60;52;
28026;PMS5003;15344;52.342;-1.290;2022-12-18T06:23:12;76;60;
28026;PMS5003;15344;52.342;-1.290;2022-12-18T06:25:38;67;48;
28026;PMS5003;15344;52.342;-1.290;2022-12-18T06:28:03;71;58;
28026;PMS5003;15344;52.342;-1.290;2022-12-18T06:30:28;71;51;
28026;PMS5003;15344;52.342;-1.290;2022-12-18T06:32:54;68;48;
28026;PMS5003;15344;52.342;-1.290;2022-12-18T06:35:20;62;47;
28026;PMS5003;15344;52.342;-1.290;2022-12-18T06:37:45;79;58;
28026;PMS5003;15344;52.342;-1.290;2022-12-18T06:40:10;81;54;
28026;PMS5003;15344;52.342;-1.290;2022-12-18T06:42:36;74;56;
28026;PMS5003;15344;52.342;-1.290;2022-12-18T06:45:02;72;46;
28026;PMS5003;15344;52.342;-1.290;2022-12-18T06:47:27;75;55;
28026;PMS5003;15344;52.342;-1.290;2022-12-18T06:49:53;67;52;
28026;PMS5003;15344;52.342;-1.290;2022-12-18T06:52:18;84;53;
28026;PMS5003;15344;52.342;-1.290;2022-12-18T06:54:44;63;52;
28026;PMS5003;15344;52.342;-1.290;2022-12-18T06:57:10;61;52;
28026;PMS5003;15344;52.342;-1.290;2022-12-18T06:59:35;67;49;
28026;PMS5003;15344;52.342;-1.290;2022-12-18T07:02:00;73;56;
28026;PMS5003;15344;52.342;-1.290;2022-12-18T07:04:27;65;48;
28026;PMS5003;15344;52.342;-1.290;2022-12-18T07:06:51;58;47;
28026;PMS5003;15344;52.342;-1.290;2022-12-18T07:09:17;63;50;
28026;PMS5003;15344;52.342;-1.290;2022-12-18T07:11:42;60;42;
28026;PMS5003;15344;52.342;-1.290;2022-12-18T07:14:08;59;40;
28026;PMS5003;15344;52.342;-1.290;2022-12-18T07:16:33;71;48;
28026;PMS5003;15344;52.342;-1.290;2022-12-18T07:18:58;64;42;
28026;PMS5003;15344;52.342;-1.290;2022-12-18T07:21:24;63;48;
28026;PMS5003;15344;52.342;-1.290;2022-12-18T07:23:50;50;40;
28026;PMS5003;15344;52.342;-1.290;2022-12-18T07:26:16;60;45;
28026;PMS5003;15344;52.342;-1.290;2022-12-18T07:28:41;54;44;
28026;PMS5003;15344;52.342;-1.290;2022-12-18T07:31:06;53;39;
28026;PMS5003;15344;52.342;-1.290;2022-12-18T07:33:31;50;40;
28026;PMS5003;15344;52.342;-1.290;2022-12-18T07:35:56;68;50;
28026;PMS5003;15344;52.342;-1.290;2022-12-18T07:38:22;63;48;
28026;PMS5003;15344;52.342;-1.290;2022-12-18T07:40:47;52;40;
28026;PMS5003;15344;52.342;-1.290;2022-12-18T07:43:13;51;42;
28026;PMS5003;15344;52.342;-1.290;2022-12-18T07:45:39;56;45;
28026;PMS5003;15344;52.342;-1.290;2022-12-18T07:48:04;52;41;
28026;PMS5003;15344;52.342;-1.290;2022-12-18T07:50:30;56;46;
28026;PMS5003;15344;52.342;-1.290;2022-12-18T07:52:55;52;39;
28026;PMS5003;15344;52.342;-1.290;2022-12-18T07:55:21;55;42;
28026;PMS5003;15344;52.342;-1.290;2022-12-18T07:57:46;53;40;
28026;PMS5003;15344;52.342;-1.290;2022-12-18T08:00:11;46;38;
28026;PMS5003;15344;52.342;-1.290;2022-12-18T08:02:37;53;37;
28026;PMS5003;15344;52.342;-1.290;2022-12-18T08:05:02;52;39;
28026;PMS5003;15344;52.342;-1.290;2022-12-18T08:07:27;46;33;
28026;PMS5003;15344;52.342;-1.290;2022-12-18T08:09:53;41;36;
28026;PMS5003;15344;52.342;-1.290;2022-12-18T08:12:18;58;40;
28026;PMS5003;15344;52.342;-1.290;2022-12-18T08:14:43;54;40;
28026;PMS5003;15344;52.342;-1.290;2022-12-18T08:17:09;49;34;
28026;PMS5003;15344;52.342;-1.290;2022-12-18T08:19:35;47;38;
28026;PMS5003;15344;52.342;-1.290;2022-12-18T08:22:00;50;35;
28026;PMS5003;15344;52.342;-1.290;2022-12-18T08:24:26;53;34;
28026;PMS5003;15344;52.342;-1.290;2022-12-18T08:26:51;45;36;
28026;PMS5003;15344;52.342;-1.290;2022-12-18T08:29:17;49;42;
28026;PMS5003;15344;52.342;-1.290;2022-12-18T08:31:43;51;36;
28026;PMS5003;15344;52.342;-1.290;2022-12-18T08:34:08;51;36;
28026;PMS5003;15344;52.342;-1.290;2022-12-18T08:36:33;52;44;
28026;PMS5003;15344;52.342;-1.290;2022-12-18T08:38:59;46;40;
28026;PMS5003;15344;52.342;-1.290;2022-12-18T08:41:24;54;42;
28026;PMS5003;15344;52.342;-1.290;2022-12-18T08:43:49;44;38;
28026;PMS5003;15344;52.342;-1.290;2022-12-18T08:46:15;45;36;
28026;PMS5003;15344;52.342;-1.290;2022-12-18T08:48:41;43;36;
28026;PMS5003;15344;52.342;-1.290;2022-12-18T08:51:06;52;35;
28026;PMS5003;15344;52.342;-1.290;2022-12-18T08:53:31;45;36;
28026;PMS5003;15344;52.342;-1.290;2022-12-18T08:55:57;53;39;
28026;PMS5003;15344;52.342;-1.290;2022-12-18T08:58:23;45;42;
28026;PMS5003;15344;52.342;-1.290;2022-12-18T09:00:48;39;35;
28026;PMS5003;15344;52.342;-1.290;2022-12-18T09:03:15;44;32;
28026;PMS5003;15344;52.342;-1.290;2022-12-18T09:05:40;41;35;
28026;PMS5003;15344;52.342;-1.290;2022-12-18T09:08:05;49;36;
28026;PMS5003;15344;52.342;-1.290;2022-12-18T09:10:30;45;37;
28026;PMS5003;15344;52.342;-1.290;2022-12-18T09:12:56;60;40;
28026;PMS5003;15344;52.342;-1.290;2022-12-18T09:15:22;49;41;
28026;PMS5003;15344;52.342;-1.290;2022-12-18T09:17:47;59;45;
28026;PMS5003;15344;52.342;-1.290;2022-12-18T09:20:12;43;33;
28026;PMS5003;15344;52.342;-1.290;2022-12-18T09:22:38;45;37;
28026;PMS5003;15344;52.342;-1.290;2022-12-18T09:25:04;39;32;
28026;PMS5003;15344;52.342;-1.290;2022-12-18T09:27:28;39;34;
28026;PMS5003;15344;52.342;-1.290;2022-12-18T09:29:54;39;31;
28026;PMS5003;15344;52.342;-1.290;2022-12-18T09:32:19;48;37;
28026;PMS5003;15344;52.342;-1.290;2022-12-18T09:34:44;49;33;
28026;PMS5003;15344;52.342;-1.290;2022-12-18T09:37:09;43;35;
28026;PMS5003;15344;52.342;-1.290;2022-12-18T09:39:35;46;38;
28026;PMS5003;15344;52.342;-1.290;2022-12-18T09:42:01;45;36;
28026;PMS5003;15344;52.342;-1.290;2022-12-18T09:44:27;50;40;
28026;PMS5003;15344;52.342;-1.290;2022-12-18T09:46:54;56;39;
28026;PMS5003;15344;52.342;-1.290;2022-12-18T09:49:18;58;42;
28026;PMS5003;15344;52.342;-1.290;2022-12-18T09:51:43;49;40;
28026;PMS5003;15344;52.342;-1.290;2022-12-18T09:54:11;52;40;
28026;PMS5003;15344;52.342;-1.290;2022-12-18T09:56:35;59;37;
28026;PMS5003;15344;52.342;-1.290;2022-12-18T09:59:00;47;36;
28026;PMS5003;15344;52.342;-1.290;2022-12-18T10:01:25;48;39;
28026;PMS5003;15344;52.342;-1.290;2022-12-18T10:03:50;42;34;
28026;PMS5003;15344;52.342;-1.290;2022-12-18T10:06:18;48;36;
28026;PMS5003;15344;52.342;-1.290;2022-12-18T10:08:42;42;35;
28026;PMS5003;15344;52.342;-1.290;2022-12-18T10:11:16;46;36;
28026;PMS5003;15344;52.342;-1.290;2022-12-18T10:13:33;32;27;
28026;PMS5003;15344;52.342;-1.290;2022-12-18T10:16:00;45;39;
28026;PMS5003;15344;52.342;-1.290;2022-12-18T10:18:26;40;33;
28026;PMS5003;15344;52.342;-1.290;2022-12-18T10:20:49;46;43;
28026;PMS5003;15344;52.342;-1.290;2022-12-18T10:23:16;49;36;
28026;PMS5003;15344;52.342;-1.290;2022-12-18T10:25:41;51;39;
28026;PMS5003;15344;52.342;-1.290;2022-12-18T10:28:08;49;37;
28026;PMS5003;15344;52.342;-1.290;2022-12-18T10:30:31;36;33;
28026;PMS5003;15344;52.342;-1.290;2022-12-18T10:33:00;49;36;
28026;PMS5003;15344;52.342;-1.290;2022-12-18T10:35:23;46;43;
28026;PMS5003;15344;52.342;-1.290;2022-12-18T10:40:15;49;39;
28026;PMS5003;15344;52.342;-1.290;2022-12-18T10:42:39;50;43;
28026;PMS5003;15344;52.342;-1.290;2022-12-18T10:45:08;47;40;
28026;PMS5003;15344;52.342;-1.290;2022-12-18T10:47:29;53;45;
28026;PMS5003;15344;52.342;-1.290;2022-12-18T10:49:54;54;47;
28026;PMS5003;15344;52.342;-1.290;2022-12-18T10:52:20;52;43;
28026;PMS5003;15344;52.342;-1.290;2022-12-18T10:54:47;66;41;
28026;PMS5003;15344;52.342;-1.290;2022-12-18T10:57:14;57;42;
28026;PMS5003;15344;52.342;-1.290;2022-12-18T10:59:37;58;44;
28026;PMS5003;15344;52.342;-1.290;2022-12-18T11:02:07;58;44;
28026;PMS5003;15344;52.342;-1.290;2022-12-18T11:04:28;53;45;
28026;PMS5003;15344;52.342;-1.290;2022-12-18T11:06:55;52;44;
28026;PMS5003;15344;52.342;-1.290;2022-12-18T11:09:19;53;40;
28026;PMS5003;15344;52.342;-1.290;2022-12-18T11:11:47;48;37;
28026;PMS5003;15344;52.342;-1.290;2022-12-18T11:14:12;50;42;
28026;PMS5003;15344;52.342;-1.290;2022-12-18T11:16:35;48;34;
28026;PMS5003;15344;52.342;-1.290;2022-12-18T11:21:26;57;40;
28026;PMS5003;15344;52.342;-1.290;2022-12-18T11:23:52;48;38;
28026;PMS5003;15344;52.342;-1.290;2022-12-18T11:26:17;57;43;
28026;PMS5003;15344;52.342;-1.290;2022-12-18T11:28:43;53;43;
28026;PMS5003;15344;52.342;-1.290;2022-12-18T11:31:17;58;42;
28026;PMS5003;15344;52.342;-1.290;2022-12-18T11:33:34;59;50;
28026;PMS5003;15344;52.342;-1.290;2022-12-18T11:36:00;46;36;
28026;PMS5003;15344;52.342;-1.290;2022-12-18T11:38:26;42;37;
28026;PMS5003;15344;52.342;-1.290;2022-12-18T11:40:53;51;41;
28026;PMS5003;15344;52.342;-1.290;2022-12-18T11:43:17;43;36;
28026;PMS5003;15344;52.342;-1.290;2022-12-18T11:45:46;52;46;
28026;PMS5003;15344;52.342;-1.290;2022-12-18T11:48:11;61;48;
28026;PMS5003;15344;52.342;-1.290;2022-12-18T11:50:38;53;46;
28026;PMS5003;15344;52.342;-1.290;2022-12-18T11:52:59;51;41;
28026;PMS5003;15344;52.342;-1.290;2022-12-18T11:55:27;49;42;
28026;PMS5003;15344;52.342;-1.290;2022-12-18T11:57:52;54;43;
28026;PMS5003;15344;52.342;-1.290;2022-12-18T12:00:16;52;47;
28026;PMS5003;15344;52.342;-1.290;2022-12-18T12:02:48;51;40;
28026;PMS5003;15344;52.342;-1.290;2022-12-18T12:07:35;52;43;
28026;PMS5003;15344;52.342;-1.290;2022-12-18T12:10:00;51;41;
28026;PMS5003;15344;52.342;-1.290;2022-12-18T12:12:27;53;39;
28026;PMS5003;15344;52.342;-1.290;2022-12-18T12:14:49;54;46;
28026;PMS5003;15344;52.342;-1.290;2022-12-18T12:17:16;62;47;
28026;PMS5003;15344;52.342;-1.290;2022-12-18T12:19:41;49;39;
28026;PMS5003;15344;52.342;-1.290;2022-12-18T12:22:06;45;39;
28026;PMS5003;15344;52.342;-1.290;2022-12-18T12:24:32;56;45;
28026;PMS5003;15344;52.342;-1.290;2022-12-18T12:26:57;46;40;
28026;PMS5003;15344;52.342;-1.290;2022-12-18T12:29:24;50;45;
28026;PMS5003;15344;52.342;-1.290;2022-12-18T12:31:50;52;42;
28026;PMS5003;15344;52.342;-1.290;2022-12-18T12:34:13;51;46;
28026;PMS5003;15344;52.342;-1.290;2022-12-18T12:36:37;55;39;
28026;PMS5003;15344;52.342;-1.290;2022-12-18T12:39:03;42;40;
28026;PMS5003;15344;52.342;-1.290;2022-12-18T12:41:27;49;36;
28026;PMS5003;15344;52.342;-1.290;2022-12-18T12:43:52;52;43;
28026;PMS5003;15344;52.342;-1.290;2022-12-18T12:46:19;54;44;
28026;PMS5003;15344;52.342;-1.290;2022-12-18T12:48:45;42;38;
28026;PMS5003;15344;52.342;-1.290;2022-12-18T12:51:12;54;42;
28026;PMS5003;15344;52.342;-1.290;2022-12-18T12:53:35;49;43;
28026;PMS5003;15344;52.342;-1.290;2022-12-18T12:56:00;54;39;
28026;PMS5003;15344;52.342;-1.290;2022-12-18T12:58:28;49;45;
28026;PMS5003;15344;52.342;-1.290;2022-12-18T13:00:53;53;46;
28026;PMS5003;15344;52.342;-1.290;2022-12-18T13:03:19;52;44;
28026;PMS5003;15344;52.342;-1.290;2022-12-18T13:05:43;54;43;
28026;PMS5003;15344;52.342;-1.290;2022-12-18T13:08:08;57;42;
28026;PMS5003;15344;52.342;-1.290;2022-12-18T13:10:33;51;42;
28026;PMS5003;15344;52.342;-1.290;2022-12-18T13:12:59;63;48;
28026;PMS5003;15344;52.342;-1.290;2022-12-18T13:15:24;48;40;
28026;PMS5003;15344;52.342;-1.290;2022-12-18T13:17:48;58;43;
28026;PMS5003;15344;52.342;-1.290;2022-12-18T13:20:14;43;43;
28026;PMS5003;15344;52.342;-1.290;2022-12-18T13:22:41;54;44;
28026;PMS5003;15344;52.342;-1.290;2022-12-18T13:29:56;65;51;
28026;PMS5003;15344;52.342;-1.290;2022-12-18T13:32:22;49;40;
28026;PMS5003;15344;52.342;-1.290;2022-12-18T13:34:47;54;46;
28026;PMS5003;15344;52.342;-1.290;2022-12-18T13:39:38;52;45;
28026;PMS5003;15344;52.342;-1.290;2022-12-18T13:44:31;46;39;
28026;PMS5003;15344;52.342;-1.290;2022-12-18T13:46:54;57;44;
28026;PMS5003;15344;52.342;-1.290;2022-12-18T13:49:21;60;46;
28026;PMS5003;15344;52.342;-1.290;2022-12-18T13:51:46;57;46;
28026;PMS5003;15344;52.342;-1.290;2022-12-18T13:54:13;59;48;
28026;PMS5003;15344;52.342;-1.290;2022-12-18T13:56:42;56;48;
28026;PMS5003;15344;52.342;-1.290;2022-12-18T14:01:26;52;44;
28026;PMS5003;15344;52.342;-1.290;2022-12-18T14:06:18;62;47;
28026;PMS5003;15344;52.342;-1.290;2022-12-18T14:08:43;54;43;
28026;PMS5003;15344;52.342;-1.290;2022-12-18T14:11:17;51;43;
28026;PMS5003;15344;52.342;-1.290;2022-12-18T14:13:35;44;36;
28026;PMS5003;15344;52.342;-1.290;2022-12-18T14:16:00;50;43;
28026;PMS5003;15344;52.342;-1.290;2022-12-18T14:18:25;60;45;
28026;PMS5003;15344;52.342;-1.290;2022-12-18T14:20:50;52;47;
28026;PMS5003;15344;52.342;-1.290;2022-12-18T14:25:45;55;44;
28026;PMS5003;15344;52.342;-1.290;2022-12-18T14:28:08;50;45;
28026;PMS5003;15344;52.342;-1.290;2022-12-18T14:30:32;52;42;
28026;PMS5003;15344;52.342;-1.290;2022-12-18T14:33:00;55;42;
28026;PMS5003;15344;52.342;-1.290;2022-12-18T14:35:22;47;41;
28026;PMS5003;15344;52.342;-1.290;2022-12-18T14:37:47;46;36;
28026;PMS5003;15344;52.342;-1.290;2022-12-18T14:40:14;58;44;
28026;PMS5003;15344;52.342;-1.290;2022-12-18T14:42:37;59;46;
28026;PMS5003;15344;52.342;-1.290;2022-12-18T14:47:28;56;47;
28026;PMS5003;15344;52.342;-1.290;2022-12-18T14:49:53;60;47;
28026;PMS5003;15344;52.342;-1.290;2022-12-18T14:52:20;44;36;
28026;PMS5003;15344;52.342;-1.290;2022-12-18T14:54:45;56;42;
28026;PMS5003;15344;52.342;-1.290;2022-12-18T14:57:14;41;36;
28026;PMS5003;15344;52.342;-1.290;2022-12-18T14:59:34;47;38;
28026;PMS5003;15344;52.342;-1.290;2022-12-18T15:02:01;42;36;
28026;PMS5003;15344;52.342;-1.290;2022-12-18T15:04:26;48;40;
28026;PMS5003;15344;52.342;-1.290;2022-12-18T15:09:21;36;29;
28026;PMS5003;15344;52.342;-1.290;2022-12-18T15:11:44;34;32;
28026;PMS5003;15344;52.342;-1.290;2022-12-18T15:18:58;36;29;
28026;PMS5003;15344;52.342;-1.290;2022-12-18T15:21:23;41;33;
28026;PMS5003;15344;52.342;-1.290;2022-12-18T15:23:49;30;28;
28026;PMS5003;15344;52.342;-1.290;2022-12-18T15:26:16;39;31;
28026;PMS5003;15344;52.342;-1.290;2022-12-18T15:28:43;31;29;
28026;PMS5003;15344;52.342;-1.290;2022-12-18T15:33:32;37;29;
28026;PMS5003;15344;52.342;-1.290;2022-12-18T15:35:56;34;29;
28026;PMS5003;15344;52.342;-1.290;2022-12-18T15:38:21;33;28;
28026;PMS5003;15344;52.342;-1.290;2022-12-18T15:40:47;25;25;
28026;PMS5003;15344;52.342;-1.290;2022-12-18T15:43:13;35;30;
28026;PMS5003;15344;52.342;-1.290;2022-12-18T15:45:38;34;30;
28026;PMS5003;15344;52.342;-1.290;2022-12-18T15:48:07;34;30;
28026;PMS5003;15344;52.342;-1.290;2022-12-18T15:50:28;30;26;
28026;PMS5003;15344;52.342;-1.290;2022-12-18T15:52:54;34;28;
28026;PMS5003;15344;52.342;-1.290;2022-12-18T15:55:20;28;25;
28026;PMS5003;15344;52.342;-1.290;2022-12-18T15:57:45;22;21;
28026;PMS5003;15344;52.342;-1.290;2022-12-18T16:00:11;34;30;
28026;PMS5003;15344;52.342;-1.290;2022-12-18T16:02:36;27;22;
28026;PMS5003;15344;52.342;-1.290;2022-12-18T16:05:02;30;27;
28026;PMS5003;15344;52.342;-1.290;2022-12-18T16:07:27;27;22;
28026;PMS5003;15344;52.342;-1.290;2022-12-18T16:09:53;27;22;
28026;PMS5003;15344;52.342;-1.290;2022-12-18T16:12:19;19;19;
28026;PMS5003;15344;52.342;-1.290;2022-12-18T16:14:44;26;21;
28026;PMS5003;15344;52.342;-1.290;2022-12-18T16:17:09;22;19;
28026;PMS5003;15344;52.342;-1.290;2022-12-18T16:19:34;25;20;
28026;PMS5003;15344;52.342;-1.290;2022-12-18T16:21:59;23;19;
28026;PMS5003;15344;52.342;-1.290;2022-12-18T16:24:25;23;18;
28026;PMS5003;15344;52.342;-1.290;2022-12-18T16:26:51;18;18;
28026;PMS5003;15344;52.342;-1.290;2022-12-18T16:29:15;24;20;
28026;PMS5003;15344;52.342;-1.290;2022-12-18T16:31:41;20;16;